Time;durP1;ratioP1;P1;durP2;ratioP2;P2;SDS_P1;SDS_P2;PMS_P1;PMS_P2;Temp;Humidity;BMP_temperature;BMP_pressure;BME280_temperature;BME280_humidity;BME280_pressure;Samples;Min_cycle;Max_cycle;Signal;HPM_P1;HPM_P2
2022/10/13 00:03:45;;;;;;;33.00;17.97;;;9.20;22.10;;;;;;10469672;28;20218;-85
2022/10/13 00:09:12;;;;;;;33.20;18.17;;;9.20;22.00;;;;;;10495912;28;20205;-85
2022/10/13 00:14:33;;;;;;;32.33;17.20;;;9.20;23.90;;;;;;10485521;28;20230;-84
2022/10/13 00:19:55;;;;;;;27.83;16.70;;;9.20;23.20;;;;;;10485484;28;20272;-85
2022/10/13 00:25:16;;;;;;;29.87;14.93;;;9.20;18.80;;;;;;10435873;28;20195;-85
2022/10/13 00:30:40;;;;;;;24.83;14.70;;;9.20;22.50;;;;;;10454795;28;20306;-85
2022/10/13 00:36:01;;;;;;;24.87;14.43;;;9.20;22.90;;;;;;10448715;28;20229;-85
2022/10/13 00:41:22;;;;;;;22.93;13.83;;;9.20;19.40;;;;;;10426962;28;20211;-84
2022/10/13 00:46:43;;;;;;;26.07;15.93;;;9.20;16.00;;;;;;10440715;28;20193;-85
2022/10/13 00:52:05;;;;;;;22.87;13.60;;;9.10;23.80;;;;;;10498117;28;20203;-85
2022/10/13 00:57:26;;;;;;;20.43;13.13;;;9.20;19.40;;;;;;10466826;28;20387;-85
2022/10/13 01:02:48;;;;;;;21.80;14.33;;;9.20;27.10;;;;;;10439712;28;20336;-85
2022/10/13 01:08:11;;;;;;;28.07;15.27;;;9.20;25.70;;;;;;10439564;28;20273;-85
2022/10/13 01:13:56;;;;;;;23.77;13.57;;;9.10;20.50;;;;;;10440557;28;20226;-84
2022/10/13 01:19:36;;;;;;;24.70;14.50;;;9.10;24.70;;;;;;10455867;28;20495;-84
2022/10/13 01:25:03;;;;;;;24.07;13.87;;;9.10;33.80;;;;;;10466682;28;20194;-84
2022/10/13 01:30:24;;;;;;;24.30;14.20;;;9.10;18.20;;;;;;10493730;28;20242;-84
2022/10/13 01:36:04;;;;;;;22.93;12.23;;;9.10;16.40;;;;;;10460737;28;20282;-85
2022/10/13 01:41:38;;;;;;;17.80;11.00;;;9.10;5.10;;;;;;10416528;28;20240;-85
2022/10/13 01:47:01;;;;;;;18.47;10.83;;;9.00;1.50;;;;;;10418963;28;20210;-86
2022/10/13 01:52:26;;;;;;;18.10;10.37;;;9.10;1.00;;;;;;10492785;28;20227;-85
2022/10/13 01:57:48;;;;;;;17.13;9.77;;;9.10;1.00;;;;;;10471006;28;20211;-86
2022/10/13 02:03:38;;;;;;;16.90;10.53;;;9.10;1.00;;;;;;10437952;28;20387;-85
2022/10/13 02:09:27;;;;;;;22.53;11.37;;;9.10;1.00;;;;;;10423638;28;20494;-85
2022/10/13 02:14:49;;;;;;;23.27;13.37;;;9.20;1.00;;;;;;10454993;28;20227;-84
2022/10/13 02:20:12;;;;;;;20.77;12.63;;;9.10;1.00;;;;;;10481439;28;20271;-85
2022/10/13 02:25:34;;;;;;;22.13;13.07;;;9.10;1.00;;;;;;10418956;28;20213;-85
2022/10/13 02:30:55;;;;;;;19.73;11.43;;;9.10;1.00;;;;;;10520673;28;20222;-85
2022/10/13 02:36:17;;;;;;;17.63;10.73;;;9.10;1.00;;;;;;10479276;28;20223;-86
2022/10/13 02:41:38;;;;;;;18.53;10.17;;;9.10;1.00;;;;;;10441675;28;20368;-85
2022/10/13 02:47:00;;;;;;;15.20;9.70;;;9.00;1.00;;;;;;10480440;28;20202;-86
2022/10/13 03:03:02;;;;;;;15.23;8.47;;;8.70;1.00;;;;;;10480991;28;20196;-86
2022/10/13 03:08:23;;;;;;;19.00;10.20;;;8.70;1.00;;;;;;10519999;28;20211;-84
2022/10/13 03:13:45;;;;;;;15.93;9.27;;;8.60;1.00;;;;;;10478921;28;20229;-84
2022/10/13 03:19:06;;;;;;;19.07;9.83;;;8.60;1.00;;;;;;10430128;28;20198;-84
2022/10/13 03:24:28;;;;;;;14.50;9.27;;;;;;;;;;10431535;28;20205;-84
2022/10/13 03:29:49;;;;;;;15.13;8.70;;;8.60;1.00;;;;;;10484662;28;20462;-84
2022/10/13 03:35:10;;;;;;;16.63;9.33;;;8.60;1.00;;;;;;10473334;28;20223;-85
2022/10/13 03:40:32;;;;;;;14.40;9.03;;;8.60;6.50;;;;;;10443087;28;20206;-85
2022/10/13 03:45:58;;;;;;;14.77;8.43;;;8.70;9.60;;;;;;10401650;28;20198;-85
2022/10/13 03:51:21;;;;;;;14.97;9.30;;;8.70;1.00;;;;;;10469128;28;20199;-84
2022/10/13 03:56:43;;;;;;;16.07;9.93;;;8.70;1.00;;;;;;10442637;28;20221;-85
2022/10/13 04:02:04;;;;;;;14.77;9.43;;;8.60;1.60;;;;;;10428726;28;20385;-86
2022/10/13 04:07:25;;;;;;;14.70;9.27;;;8.60;1.00;;;;;;10414314;28;20220;-84
2022/10/13 04:12:48;;;;;;;16.70;10.10;;;8.60;1.00;;;;;;10427967;28;20194;-85
2022/10/13 04:18:10;;;;;;;17.23;9.83;;;8.30;4.20;;;;;;10431090;28;20436;-85
2022/10/13 04:23:30;;;;;;;16.33;10.50;;;7.70;1.00;;;;;;10442415;28;20234;-84
2022/10/13 04:28:53;;;;;;;17.93;10.90;;;;;;;;;;10478843;28;20229;-85
2022/10/13 04:34:14;;;;;;;18.30;11.00;;;8.00;1.00;;;;;;10472200;28;20230;-84
2022/10/13 04:39:36;;;;;;;16.43;10.87;;;;;;;;;;10425490;28;20200;-84
2022/10/13 04:44:57;;;;;;;18.80;11.20;;;7.80;1.00;;;;;;10426867;28;20307;-85
2022/10/13 04:50:18;;;;;;;18.07;11.57;;;7.70;1.00;;;;;;10456617;28;20224;-84
2022/10/13 04:55:40;;;;;;;23.17;12.60;;;7.60;1.00;;;;;;10453205;28;20245;-85
2022/10/13 05:01:02;;;;;;;29.57;18.97;;;;;;;;;;10484062;28;20199;-84
2022/10/13 05:06:35;;;;;;;43.60;26.30;;;7.50;1.00;;;;;;10483319;28;20196;-84
2022/10/13 05:12:01;;;;;;;49.97;29.60;;;7.50;1.00;;;;;;10482496;28;20232;-85
2022/10/13 05:17:22;;;;;;;50.40;30.00;;;7.40;1.00;;;;;;10466536;28;20227;-84
2022/10/13 05:22:44;;;;;;;52.50;31.10;;;7.30;1.00;;;;;;10446882;28;20223;-84
2022/10/13 05:28:06;;;;;;;42.77;24.93;;;7.30;1.00;;;;;;10489400;28;20232;-87
2022/10/13 05:33:27;;;;;;;30.07;18.33;;;7.30;1.00;;;;;;10492105;28;20228;-85
2022/10/13 05:38:51;;;;;;;38.80;19.30;;;7.40;5.90;;;;;;10414046;28;20234;-86
2022/10/13 05:44:12;;;;;;;28.30;16.37;;;7.50;1.00;;;;;;10430966;28;20269;-85
2022/10/13 05:49:46;;;;;;;29.67;15.43;;;7.50;1.40;;;;;;10461865;28;20197;-85
2022/10/13 05:55:10;;;;;;;26.70;14.60;;;7.60;1.00;;;;;;10512619;28;20560;-86
2022/10/13 06:00:31;;;;;;;51.83;25.90;;;7.60;1.00;;;;;;10484245;28;20200;-85
2022/10/13 06:05:52;;;;;;;51.07;23.03;;;7.70;1.00;;;;;;10495893;28;20513;-86
2022/10/13 06:11:13;;;;;;;43.63;22.23;;;7.70;1.00;;;;;;10495012;28;20188;-85
2022/10/13 06:16:37;;;;;;;70.30;30.30;;;7.80;1.00;;;;;;10464618;28;20587;-86
2022/10/13 06:21:59;;;;;;;62.40;30.03;;;8.00;1.00;;;;;;10450136;28;20279;-86
2022/10/13 06:27:23;;;;;;;55.27;26.67;;;8.70;1.00;;;;;;10450390;28;20197;-86
2022/10/13 06:32:46;;;;;;;39.83;19.37;;;10.10;1.00;;;;;;10494145;28;20201;-86
2022/10/13 06:38:09;;;;;;;33.00;17.37;;;11.10;1.00;;;;;;10487503;28;20266;-87
2022/10/13 06:43:31;;;;;;;23.50;12.47;;;11.90;99.90;;;;;;10453039;28;20513;-86
2022/10/13 06:48:56;;;;;;;22.00;12.63;;;12.30;1.00;;;;;;10433252;28;20391;-86
2022/10/13 06:54:17;;;;;;;21.92;13.25;;;12.40;1.00;;;;;;10493953;28;20452;-86
2022/10/13 06:59:39;;;;;;;28.75;13.07;;;12.70;1.00;;;;;;10463735;28;20198;-88
2022/10/13 07:05:00;;;;;;;18.20;10.82;;;12.80;1.00;;;;;;10493936;28;20218;-87
2022/10/13 07:10:21;;;;;;;19.67;10.55;;;12.90;32.30;;;;;;10500975;28;20195;-86
2022/10/13 07:15:42;;;;;;;23.20;10.60;;;13.50;99.90;;;;;;10458163;28;20219;-85
2022/10/13 07:21:05;;;;;;;26.23;12.73;;;13.90;1.00;;;;;;10444861;28;20259;-86
2022/10/13 07:26:26;;;;;;;17.08;10.23;;;14.40;99.90;;;;;;10422843;28;20224;-88
2022/10/13 07:31:48;;;;;;;16.42;9.38;;;;;;;;;;10462134;28;20251;-87
2022/10/13 07:37:15;;;;;;;17.92;9.15;;;;;;;;;;10460097;28;20567;-87
2022/10/13 07:42:37;;;;;;;18.98;10.30;;;;;;;;;;10451740;28;20211;-87
2022/10/13 07:47:59;;;;;;;17.55;8.73;;;;;;;;;;10448150;28;20541;-87
2022/10/13 07:53:21;;;;;;;21.42;10.95;;;;;;;;;;10426065;28;20201;-87
2022/10/13 07:58:43;;;;;;;22.38;11.52;;;;;;;;;;10410681;28;20221;-88
2022/10/13 08:04:05;;;;;;;20.25;9.45;;;15.70;99.90;;;;;;10416185;28;20209;-89
2022/10/13 08:09:27;;;;;;;20.27;10.13;;;16.70;1.00;;;;;;10410651;28;20403;-87
2022/10/13 08:14:50;;;;;;;21.80;11.25;;;;;;;;;;10422914;28;20766;-85
2022/10/13 08:20:12;;;;;;;17.48;8.27;;;;;;;;;;10430487;28;20199;-86
2022/10/13 08:25:41;;;;;;;24.38;11.70;;;19.50;1.00;;;;;;10435501;28;20239;-86
2022/10/13 08:31:03;;;;;;;13.95;8.23;;;20.00;1.00;;;;;;10450644;28;20423;-85
2022/10/13 08:36:24;;;;;;;10.40;6.18;;;20.10;1.00;;;;;;10462161;28;20227;-86
2022/10/13 08:41:45;;;;;;;18.60;7.18;;;20.60;1.00;;;;;;10449719;28;20218;-85
2022/10/13 08:47:27;;;;;;;15.13;8.27;;;;;;;;;;10463052;28;20200;-85
2022/10/13 08:53:01;;;;;;;15.20;7.90;;;20.50;1.00;;;;;;10304347;28;20213;-85
2022/10/13 08:58:29;;;;;;;13.38;6.05;;;20.20;1.00;;;;;;10293396;28;20265;-85
2022/10/13 09:04:10;;;;;;;17.35;7.75;;;19.70;1.00;;;;;;10299016;28;20268;-86
2022/10/13 09:09:33;;;;;;;17.02;8.45;;;19.70;1.00;;;;;;10357083;28;20209;-88
2022/10/13 09:15:04;;;;;;;14.60;7.15;;;19.70;1.00;;;;;;10294881;28;20375;-91
2022/10/13 09:20:28;;;;;;;13.45;7.63;;;20.00;1.00;;;;;;10294029;28;20402;-92
2022/10/13 09:25:51;;;;;;;23.00;11.38;;;20.50;99.90;;;;;;10348004;28;20207;-89
2022/10/13 09:31:27;;;;;;;18.02;9.55;;;20.10;99.90;;;;;;10438887;28;20236;-86
2022/10/13 09:37:03;;;;;;;14.95;8.55;;;20.90;99.90;;;;;;10409682;28;20225;-87
2022/10/13 09:42:29;;;;;;;14.30;6.97;;;21.20;1.00;;;;;;10393302;28;20240;-86
2022/10/13 09:47:58;;;;;;;9.20;5.35;;;21.20;99.90;;;;;;10409740;28;20192;-91
2022/10/13 09:53:38;;;;;;;12.90;6.55;;;21.10;99.90;;;;;;10405077;28;20216;-90
2022/10/13 09:59:31;;;;;;;11.50;5.72;;;21.40;99.90;;;;;;10405591;28;20278;-86
2022/10/13 10:04:57;;;;;;;13.85;5.32;;;20.70;99.90;;;;;;10447955;28;20219;-89
2022/10/13 10:10:30;;;;;;;10.60;4.90;;;20.50;99.90;;;;;;10413899;28;20205;-90
2022/10/13 10:16:14;;;;;;;8.77;4.07;;;20.70;99.90;;;;;;10421748;28;20421;-83
2022/10/13 10:21:51;;;;;;;9.05;4.13;;;21.40;99.90;;;;;;10435228;28;20200;-85
2022/10/13 10:27:23;;;;;;;11.68;7.43;;;21.20;99.90;;;;;;10451420;28;20239;-89
2022/10/13 10:32:56;;;;;;;10.70;4.90;;;21.80;99.90;;;;;;10448525;28;20192;-86
2022/10/13 10:38:26;;;;;;;23.17;8.07;;;22.00;99.90;;;;;;10448589;28;20235;-85
2022/10/13 10:44:14;;;;;;;14.13;5.43;;;22.00;99.90;;;;;;10436072;28;20250;-84
2022/10/13 10:49:39;;;;;;;9.95;3.45;;;22.40;99.90;;;;;;10431898;28;20212;-87
2022/10/13 10:55:16;;;;;;;9.27;4.28;;;22.20;99.90;;;;;;10431265;28;20310;-88
2022/10/13 11:00:47;;;;;;;8.20;3.55;;;22.40;99.90;;;;;;10445651;28;20204;-83
2022/10/13 11:06:11;;;;;;;7.90;3.90;;;22.20;1.00;;;;;;10392250;28;20201;-93
2022/10/13 11:11:36;;;;;;;7.60;4.40;;;22.50;1.00;;;;;;10427076;28;20351;-83
2022/10/13 11:17:05;;;;;;;7.88;3.33;;;22.30;99.90;;;;;;10444043;28;20238;-84
2022/10/13 11:22:28;;;;;;;8.00;4.13;;;22.20;99.90;;;;;;10420574;28;20204;-84
2022/10/13 11:27:50;;;;;;;10.88;4.30;;;22.80;96.90;;;;;;10422616;28;20239;-82
2022/10/13 11:33:39;;;;;;;7.40;4.07;;;23.30;79.10;;;;;;10422118;28;20217;-86
2022/10/13 11:39:26;;;;;;;6.95;3.60;;;22.60;90.30;;;;;;10438612;28;20208;-85
2022/10/13 11:45:01;;;;;;;7.45;4.07;;;23.40;78.50;;;;;;10425128;28;20197;-82
2022/10/13 11:50:58;;;;;;;8.02;4.18;;;23.60;63.70;;;;;;10452988;28;20196;-81
2022/10/13 11:56:32;;;;;;;16.33;4.10;;;23.40;71.90;;;;;;10442185;28;20237;-83
2022/10/13 12:02:10;;;;;;;14.07;4.88;;;23.50;56.30;;;;;;10437307;28;20211;-78
2022/10/13 12:07:35;;;;;;;11.23;4.55;;;23.40;47.20;;;;;;10411247;28;20251;-83
2022/10/13 12:12:57;;;;;;;15.13;9.10;;;23.80;53.20;;;;;;10395846;28;20288;-83
2022/10/13 12:18:32;;;;;;;10.27;4.40;;;23.80;49.30;;;;;;10408605;28;20228;-78
2022/10/13 12:24:09;;;;;;;9.63;5.47;;;23.80;46.10;;;;;;10429764;28;20205;-82
2022/10/13 12:29:30;;;;;;;7.07;4.20;;;23.80;45.40;;;;;;10437346;28;20239;-81
2022/10/13 12:34:55;;;;;;;15.73;5.38;;;23.50;41.20;;;;;;10453939;28;20227;-80
2022/10/13 12:40:18;;;;;;;10.95;5.25;;;23.30;47.10;;;;;;10409548;28;20192;-83
2022/10/13 12:45:40;;;;;;;10.93;4.22;;;23.40;55.50;;;;;;10418772;28;20216;-81
2022/10/13 12:51:28;;;;;;;17.00;7.70;;;23.90;60.00;;;;;;10468085;28;20193;-89
2022/10/13 12:56:51;;;;;;;27.15;13.45;;;23.50;26.40;;;;;;10468682;28;20216;-80
2022/10/13 13:02:23;;;;;;;9.48;4.43;;;23.40;49.80;;;;;;10439349;28;20200;-87
2022/10/13 13:07:51;;;;;;;9.63;4.35;;;23.20;20.90;;;;;;10462322;28;20443;-82
2022/10/13 13:13:14;;;;;;;12.25;5.75;;;23.60;20.00;;;;;;10451852;28;20495;-82
2022/10/13 13:18:40;;;;;;;11.75;4.85;;;23.00;15.40;;;;;;10408359;28;20220;-87
2022/10/13 13:24:01;;;;;;;8.38;4.28;;;23.20;16.10;;;;;;10434390;28;20201;-81
2022/10/13 13:29:24;;;;;;;10.73;4.97;;;23.40;17.10;;;;;;10432841;28;20237;-82
2022/10/13 13:34:45;;;;;;;4.97;3.92;;;23.30;24.00;;;;;;10439666;28;20231;-85
2022/10/13 13:40:21;;;;;;;7.95;4.50;;;21.90;1.00;;;;;;10474428;28;20272;-84
2022/10/13 13:45:43;;;;;;;12.90;4.93;;;19.90;11.40;;;;;;10455134;28;20197;-89
2022/10/13 13:51:04;;;;;;;15.65;8.00;;;18.70;25.70;;;;;;10450457;28;20234;-83
2022/10/13 13:56:25;;;;;;;9.80;5.03;;;17.40;51.10;;;;;;10465574;28;20219;-84
2022/10/13 14:01:47;;;;;;;11.40;5.20;;;17.10;73.00;;;;;;10479460;28;20375;-82
2022/10/13 14:07:08;;;;;;;17.90;8.90;;;16.90;99.90;;;;;;10419083;28;20217;-82
2022/10/13 14:12:30;;;;;;;19.98;8.68;;;16.60;99.90;;;;;;10481444;28;20202;-82
2022/10/13 14:17:52;;;;;;;15.50;6.65;;;16.30;99.90;;;;;;10466620;28;20223;-82
2022/10/13 14:23:13;;;;;;;11.07;4.90;;;16.20;99.90;;;;;;10440922;28;20191;-87
2022/10/13 14:28:34;;;;;;;11.20;4.55;;;15.90;99.90;;;;;;10439353;28;20532;-82
2022/10/13 14:33:56;;;;;;;13.27;6.00;;;15.90;99.90;;;;;;10420873;28;20218;-92
2022/10/13 14:39:17;;;;;;;12.98;6.07;;;15.80;99.90;;;;;;10473745;28;20373;-87
2022/10/13 14:44:38;;;;;;;31.23;18.77;;;15.60;99.90;;;;;;10473490;28;20197;-84
2022/10/13 14:50:00;;;;;;;25.10;15.10;;;15.50;1.00;;;;;;10486279;28;20301;-83
2022/10/13 14:55:22;;;;;;;15.85;8.32;;;15.40;1.00;;;;;;10441663;28;20222;-82
2022/10/13 15:00:44;;;;;;;22.75;11.63;;;;;;;;;;10453959;28;20229;-88
2022/10/13 15:06:06;;;;;;;31.48;14.57;;;;;;;;;;10474875;28;20517;-90
2022/10/13 15:11:28;;;;;;;30.33;16.98;;;;;;;;;;10474171;28;20402;-87
2022/10/13 15:16:49;;;;;;;13.27;6.28;;;;;;;;;;10426045;28;20249;-83
2022/10/13 15:22:10;;;;;;;23.25;13.05;;;15.00;1.00;;;;;;10446332;28;20198;-83
2022/10/13 15:27:31;;;;;;;29.25;13.18;;;14.90;99.90;;;;;;10457259;28;20208;-87
2022/10/13 15:32:54;;;;;;;25.80;12.07;;;14.70;99.90;;;;;;10446131;28;20199;-83
2022/10/13 15:38:16;;;;;;;33.45;17.27;;;14.50;1.00;;;;;;10441241;28;20223;-82
2022/10/13 15:43:38;;;;;;;21.52;11.52;;;14.30;1.00;;;;;;10428335;28;20195;-87
2022/10/13 15:48:59;;;;;;;18.65;11.70;;;14.20;99.90;;;;;;10471102;28;20204;-86
2022/10/13 15:54:21;;;;;;;19.73;10.57;;;14.00;1.00;;;;;;10470902;28;20419;-84
2022/10/13 15:59:42;;;;;;;17.80;9.63;;;14.10;1.00;;;;;;10470441;28;20442;-87
2022/10/13 16:05:04;;;;;;;18.95;9.55;;;14.00;1.00;;;;;;10483950;28;20202;-87
2022/10/13 16:10:27;;;;;;;15.50;8.93;;;;;;;;;;10468607;28;20199;-83
2022/10/13 16:16:02;;;;;;;17.47;10.63;;;;;;;;;;10494373;28;20227;-86
2022/10/13 16:21:25;;;;;;;14.82;10.93;;;;;;;;;;10469745;28;20208;-85
2022/10/13 16:26:47;;;;;;;19.52;12.77;;;;;;;;;;10461195;28;20204;-86
2022/10/13 16:32:09;;;;;;;26.40;13.77;;;;;;;;;;10427770;28;20242;-83
2022/10/13 16:37:30;;;;;;;12.05;6.75;;;;;;;;;;10472452;28;20218;-82
2022/10/13 16:42:51;;;;;;;13.63;7.10;;;;;;;;;;10468219;28;20223;-86
2022/10/13 16:48:13;;;;;;;15.82;9.38;;;;;;;;;;10468323;28;20202;-85
2022/10/13 16:53:37;;;;;;;23.85;12.07;;;;;;;;;;10470703;28;20557;-86
2022/10/13 16:59:00;;;;;;;34.85;20.35;;;;;;;;;;10484073;28;20280;-87
2022/10/13 17:04:23;;;;;;;45.03;26.80;;;;;;;;;;10462517;28;20248;-86
2022/10/13 17:09:46;;;;;;;49.88;28.92;;;;;;;;;;10439456;28;20548;-86
2022/10/13 17:15:08;;;;;;;45.42;24.27;;;;;;;;;;10454186;28;20475;-87
2022/10/13 17:20:29;;;;;;;33.58;18.45;;;;;;;;;;10456265;28;20211;-84
2022/10/13 17:25:52;;;;;;;33.40;16.57;;;;;;;;;;10440969;28;20278;-85
2022/10/13 17:31:15;;;;;;;35.10;17.02;;;;;;;;;;10453477;28;20306;-83
2022/10/13 17:36:36;;;;;;;28.33;15.03;;;;;;;;;;10456114;28;20233;-84
2022/10/13 17:42:04;;;;;;;26.50;14.15;;;;;;;;;;10438625;28;20202;-85
2022/10/13 17:47:25;;;;;;;27.53;12.57;;;12.00;1.00;;;;;;10426308;28;20202;-86
2022/10/13 17:52:47;;;;;;;27.17;13.77;;;12.90;99.90;;;;;;10441106;28;20488;-83
2022/10/13 17:58:09;;;;;;;17.87;10.60;;;;;;;;;;10440354;28;20273;-83
2022/10/13 18:03:30;;;;;;;12.80;8.03;;;;;;;;;;10424315;28;20197;-82
2022/10/13 18:08:52;;;;;;;16.97;9.07;;;;;;;;;;10438058;28;20196;-86
2022/10/13 18:14:13;;;;;;;17.07;9.00;;;;;;;;;;10438019;28;20279;-86
2022/10/13 18:19:37;;;;;;;15.43;8.80;;;;;;;;;;10423861;28;20386;-82
2022/10/13 18:25:00;;;;;;;14.03;8.07;;;;;;;;;;10423775;28;20196;-84
2022/10/13 18:30:21;;;;;;;14.87;8.03;;;;;;;;;;10482542;28;20229;-82
2022/10/13 18:35:42;;;;;;;15.33;8.73;;;12.10;99.90;;;;;;10475790;28;20214;-82
2022/10/13 18:41:04;;;;;;;15.77;8.57;;;;;;;;;;10464118;28;20200;-82
2022/10/13 18:46:26;;;;;;;13.83;8.70;;;;;;;;;;10478742;28;20194;-83
2022/10/13 18:51:49;;;;;;;14.43;7.87;;;;;;;;;;10478212;28;20197;-85
2022/10/13 18:57:11;;;;;;;16.87;8.80;;;;;;;;;;10467768;28;20237;-85
2022/10/13 19:02:32;;;;;;;17.00;8.07;;;;;;;;;;10480500;28;20240;-85
2022/10/13 19:07:54;;;;;;;14.33;7.63;;;;;;;;;;10448420;28;20206;-83
2022/10/13 19:13:15;;;;;;;11.07;7.13;;;11.50;1.00;;;;;;10464584;28;20201;-86
2022/10/13 19:18:37;;;;;;;13.73;8.30;;;11.50;99.90;;;;;;10478947;28;20227;-87
2022/10/13 19:23:59;;;;;;;17.97;8.20;;;11.50;1.00;;;;;;10464129;28;20203;-86
2022/10/13 19:29:20;;;;;;;15.90;8.70;;;11.50;99.90;;;;;;10422206;28;20231;-86
2022/10/13 19:34:41;;;;;;;21.60;11.33;;;11.50;99.90;;;;;;10449786;28;20193;-82
2022/10/13 19:40:07;;;;;;;28.73;14.27;;;11.60;1.00;;;;;;10479526;28;20206;-82
2022/10/13 19:45:28;;;;;;;26.30;14.20;;;11.60;1.00;;;;;;10480970;28;20229;-83
2022/10/13 19:50:49;;;;;;;26.03;13.90;;;11.70;1.00;;;;;;10484359;28;20205;-86
2022/10/13 19:56:26;;;;;;;25.03;12.37;;;11.70;1.00;;;;;;10457032;28;20229;-87
2022/10/13 20:01:47;;;;;;;20.93;10.77;;;11.70;1.00;;;;;;10484800;28;20506;-86
2022/10/13 20:07:08;;;;;;;17.40;10.23;;;11.70;1.00;;;;;;10461056;28;20194;-83
2022/10/13 20:12:29;;;;;;;19.17;9.20;;;11.70;1.00;;;;;;10495241;28;20536;-86
2022/10/13 20:17:51;;;;;;;17.43;8.57;;;11.70;1.00;;;;;;10474108;28;20305;-86
2022/10/13 20:23:12;;;;;;;18.73;8.27;;;11.70;1.00;;;;;;10461622;28;20225;-85
2022/10/13 20:28:35;;;;;;;13.47;7.80;;;11.80;1.00;;;;;;10481192;28;20248;-82
2022/10/13 20:33:59;;;;;;;13.13;7.87;;;11.70;1.00;;;;;;10458228;28;20202;-87
2022/10/13 20:39:23;;;;;;;13.97;8.37;;;11.70;1.00;;;;;;10459450;28;20430;-87
2022/10/13 20:44:44;;;;;;;19.70;8.60;;;11.60;1.00;;;;;;10456554;28;20199;-85
2022/10/13 20:50:07;;;;;;;14.77;8.33;;;11.50;1.00;;;;;;10455858;28;20191;-88
2022/10/13 20:55:28;;;;;;;16.23;8.93;;;11.50;1.00;;;;;;10457499;28;20205;-87
2022/10/13 21:00:50;;;;;;;17.60;9.67;;;11.40;1.00;;;;;;10444086;28;20275;-87
2022/10/13 21:06:13;;;;;;;46.67;22.87;;;11.40;1.00;;;;;;10481149;28;20222;-83
2022/10/13 21:11:34;;;;;;;49.60;25.40;;;11.30;1.00;;;;;;10426395;28;20198;-87
2022/10/13 21:16:55;;;;;;;33.97;19.13;;;11.30;17.30;;;;;;10425920;28;20229;-88
2022/10/13 21:22:17;;;;;;;21.47;12.87;;;11.20;54.30;;;;;;10426058;28;20218;-87
2022/10/13 21:27:38;;;;;;;26.73;13.17;;;11.20;99.90;;;;;;10420666;28;20257;-88
2022/10/13 21:32:59;;;;;;;26.33;15.00;;;11.10;99.90;;;;;;10439641;28;20225;-86
2022/10/13 21:38:21;;;;;;;26.83;16.17;;;;;;;;;;10411220;28;20234;-86
2022/10/13 21:43:43;;;;;;;23.23;14.80;;;;;;;;;;10424605;28;20256;-86
2022/10/13 21:49:05;;;;;;;21.20;13.33;;;10.90;1.00;;;;;;10424821;28;20221;-83
2022/10/13 21:54:27;;;;;;;21.90;14.13;;;10.80;1.00;;;;;;10411097;28;20218;-81
2022/10/13 21:59:49;;;;;;;34.57;20.20;;;10.90;1.00;;;;;;10428542;28;20255;-85
2022/10/13 22:05:11;;;;;;;55.63;32.30;;;10.90;1.00;;;;;;10431831;28;20195;-82
2022/10/13 22:10:33;;;;;;;34.33;20.77;;;10.90;1.00;;;;;;10449395;28;20201;-82
2022/10/13 22:15:55;;;;;;;26.70;15.73;;;10.90;1.00;;;;;;10450634;28;20230;-82
2022/10/13 22:21:26;;;;;;;23.40;15.27;;;11.30;1.00;;;;;;10473471;28;20281;-86
2022/10/13 22:26:49;;;;;;;23.63;13.97;;;10.90;1.00;;;;;;10465308;28;20213;-83
2022/10/13 22:32:10;;;;;;;20.90;11.80;;;10.90;1.00;;;;;;10436395;28;20241;-86
2022/10/13 22:37:31;;;;;;;18.93;11.17;;;10.90;1.00;;;;;;10511368;28;20391;-82
2022/10/13 22:42:52;;;;;;;17.23;10.80;;;10.90;1.00;;;;;;10480432;28;20383;-82
2022/10/13 22:48:14;;;;;;;20.77;12.00;;;10.90;1.00;;;;;;10478828;28;20192;-83
2022/10/13 22:53:35;;;;;;;19.03;11.20;;;10.90;1.00;;;;;;10478757;28;20259;-86
2022/10/13 22:59:08;;;;;;;16.70;11.03;;;10.90;1.00;;;;;;10449372;28;20228;-87
2022/10/13 23:04:29;;;;;;;20.30;11.30;;;10.80;1.00;;;;;;10444831;28;20214;-85
2022/10/13 23:09:50;;;;;;;22.40;13.13;;;10.70;1.00;;;;;;10421637;28;20244;-82
2022/10/13 23:15:11;;;;;;;16.23;11.47;;;10.60;99.90;;;;;;10421451;28;20198;-82
2022/10/13 23:20:33;;;;;;;18.27;12.20;;;10.60;99.90;;;;;;10439853;28;20221;-86
2022/10/13 23:25:54;;;;;;;18.00;11.33;;;10.60;99.90;;;;;;10478525;28;20203;-85
2022/10/13 23:31:16;;;;;;;21.80;13.00;;;10.60;99.90;;;;;;10471098;28;20334;-82
2022/10/13 23:36:38;;;;;;;17.30;12.13;;;10.60;99.90;;;;;;10442922;28;20286;-82
2022/10/13 23:41:59;;;;;;;15.47;11.47;;;10.50;99.90;;;;;;10429124;28;20199;-85
2022/10/13 23:47:20;;;;;;;20.67;11.97;;;10.50;99.90;;;;;;10435711;28;20437;-82
2022/10/13 23:52:42;;;;;;;24.07;11.73;;;10.50;99.90;;;;;;10416588;28;20213;-83
2022/10/13 23:58:05;;;;;;;18.77;11.27;;;10.40;98.20;;;;;;10428611;28;20229;-82
